createdAt,value
2022-11-08T00:00:19.918Z,87.73
2022-11-08T00:03:22.071Z,87.84
2022-11-08T00:06:43.010Z,87.80
2022-11-08T00:10:03.739Z,87.84
2022-11-08T00:13:25.380Z,87.70
2022-11-08T00:16:28.559Z,88.29
2022-11-08T00:19:30.605Z,88.72
2022-11-08T00:22:32.695Z,89.20
2022-11-08T00:25:34.823Z,89.71
2022-11-08T00:28:36.986Z,89.42
2022-11-08T00:31:39.061Z,88.77
2022-11-08T00:34:41.179Z,90.38
2022-11-08T00:37:43.225Z,90.32
2022-11-08T00:40:45.305Z,90.77
2022-11-08T00:43:47.351Z,90.57
2022-11-08T00:46:49.734Z,92.16
2022-11-08T00:49:51.824Z,92.62
2022-11-08T00:52:53.880Z,93.96
2022-11-08T00:56:10.071Z,94.82
2022-11-08T00:59:13.394Z,95.27
2022-11-08T01:02:15.592Z,95.48
2022-11-08T01:05:17.742Z,95.63
2022-11-08T01:08:21.806Z,95.72
2022-11-08T01:11:25.447Z,96.42
2022-11-08T01:14:27.581Z,95.86
2022-11-08T01:17:29.759Z,97.51
2022-11-08T01:20:32.045Z,97.28
2022-11-08T01:23:34.512Z,97.82
2022-11-08T01:26:36.556Z,97.20
2022-11-08T01:29:38.616Z,98.14
2022-11-08T01:32:40.663Z,98.83
2022-11-08T01:35:45.176Z,98.54
2022-11-08T01:38:47.499Z,98.89
2022-11-08T01:41:49.550Z,98.90
2022-11-08T01:45:09.102Z,97.88
2022-11-08T01:48:11.533Z,99.33
2022-11-08T01:51:14.485Z,96.61
2022-11-08T01:54:28.260Z,92.07
2022-11-08T01:57:42.231Z,87.69
2022-11-08T02:00:44.445Z,89.80
2022-11-08T02:03:47.308Z,93.45
2022-11-08T02:06:49.400Z,92.84
2022-11-08T02:09:51.437Z,93.34
2022-11-08T02:12:53.993Z,93.51
2022-11-08T02:15:56.204Z,91.68
2022-11-08T02:18:58.285Z,92.12
2022-11-08T02:22:02.209Z,90.70
2022-11-08T02:25:04.622Z,90.37
2022-11-08T02:28:06.847Z,88.90
2022-11-08T02:31:10.974Z,87.47
2022-11-08T02:34:13.028Z,85.65
2022-11-08T02:37:16.725Z,84.58
2022-11-08T02:40:18.752Z,84.00
2022-11-08T02:43:21.244Z,84.04
2022-11-08T02:46:23.345Z,83.90
2022-11-08T02:49:25.458Z,84.12
2022-11-08T02:52:27.533Z,83.62
2022-11-08T02:55:29.883Z,83.12
2022-11-08T02:58:31.969Z,82.28
2022-11-08T03:01:34.134Z,82.22
2022-11-08T03:04:36.279Z,83.12
2022-11-08T03:07:39.081Z,82.19
2022-11-08T03:10:41.189Z,82.62
2022-11-08T03:13:43.224Z,83.24
2022-11-08T03:16:45.274Z,83.31
2022-11-08T03:19:47.378Z,83.69
2022-11-08T03:22:49.408Z,83.83
2022-11-08T03:25:51.502Z,84.32
2022-11-08T03:28:53.545Z,84.76
2022-11-08T03:31:55.622Z,85.40
2022-11-08T03:34:59.661Z,85.39
2022-11-08T03:38:01.734Z,85.80
2022-11-08T03:41:03.844Z,85.65
2022-11-08T03:44:06.186Z,85.53
2022-11-08T03:47:09.099Z,85.19
2022-11-08T03:50:11.711Z,84.15
2022-11-08T03:53:13.764Z,84.39
2022-11-08T03:56:16.491Z,84.16
2022-11-08T03:59:18.529Z,83.24
2022-11-08T04:02:20.685Z,83.40
2022-11-08T04:05:22.747Z,83.32
2022-11-08T04:08:24.822Z,84.16
2022-11-08T04:11:45.649Z,86.53
2022-11-08T04:15:06.071Z,87.52
2022-11-08T04:18:26.801Z,87.13
2022-11-08T04:21:28.920Z,88.35
2022-11-08T04:24:31.077Z,87.68
2022-11-08T04:27:33.152Z,87.68
2022-11-08T04:30:35.335Z,87.48
2022-11-08T04:33:37.463Z,88.09
2022-11-08T04:36:39.584Z,88.01
2022-11-08T04:39:41.775Z,87.90
2022-11-08T04:42:46.983Z,88.09
2022-11-08T04:45:49.112Z,88.33
2022-11-08T04:48:53.110Z,87.76
2022-11-08T04:51:55.234Z,87.11
2022-11-08T04:54:57.300Z,88.67
2022-11-08T04:57:59.458Z,87.60
2022-11-08T05:01:02.640Z,88.88
2022-11-08T05:04:04.987Z,87.35
2022-11-08T05:07:12.080Z,87.41
2022-11-08T05:10:14.258Z,86.86
2022-11-08T05:13:16.351Z,87.27
2022-11-08T05:16:29.253Z,86.83
2022-11-08T05:19:49.776Z,86.88
2022-11-08T05:23:15.216Z,86.85
2022-11-08T05:26:18.275Z,87.47
2022-11-08T05:29:20.370Z,87.00
2022-11-08T05:32:22.428Z,87.17
2022-11-08T05:35:24.562Z,87.14
2022-11-08T05:38:26.626Z,87.04
2022-11-08T05:41:28.721Z,87.30
2022-11-08T05:44:30.780Z,86.68
2022-11-08T05:47:32.885Z,86.93
2022-11-08T05:50:35.290Z,87.74
2022-11-08T05:53:48.645Z,87.57
2022-11-08T05:56:51.069Z,87.96
2022-11-08T05:59:53.218Z,87.96
2022-11-08T06:02:55.376Z,88.30
2022-11-08T06:06:12.611Z,88.24
2022-11-08T06:09:14.697Z,87.33
2022-11-08T06:12:16.748Z,87.01
2022-11-08T06:15:18.874Z,86.89
2022-11-08T06:18:20.934Z,86.67
2022-11-08T06:21:23.795Z,87.18
2022-11-08T06:24:25.943Z,87.44
2022-11-08T06:27:28.124Z,86.96
2022-11-08T06:30:30.212Z,88.25
2022-11-08T06:33:32.602Z,88.10
2022-11-08T06:36:34.649Z,87.66
2022-11-08T06:39:36.730Z,87.21
2022-11-08T06:42:38.833Z,87.37
2022-11-08T06:45:40.917Z,88.03
2022-11-08T06:48:42.978Z,87.01
2022-11-08T06:51:44.995Z,86.65
2022-11-08T06:54:47.041Z,86.79
2022-11-08T06:57:49.217Z,87.14
2022-11-08T07:00:51.276Z,87.14
2022-11-08T07:03:53.313Z,86.08
2022-11-08T07:06:56.928Z,86.71
2022-11-08T07:10:03.621Z,87.53
2022-11-08T07:13:11.409Z,86.63
2022-11-08T07:16:13.805Z,86.94
2022-11-08T07:19:15.914Z,87.05
2022-11-08T07:22:17.942Z,86.59
2022-11-08T07:25:25.442Z,86.32
2022-11-08T07:28:27.506Z,86.42
2022-11-08T07:31:29.597Z,85.82
2022-11-08T07:34:32.283Z,85.34
2022-11-08T07:37:34.334Z,85.11
2022-11-08T07:40:36.375Z,85.02
2022-11-08T07:43:38.456Z,84.69
2022-11-08T07:46:51.202Z,84.32
2022-11-08T07:49:53.258Z,84.43
2022-11-08T07:52:55.342Z,83.75
2022-11-08T07:55:58.435Z,84.15
2022-11-08T07:59:00.710Z,83.28
2022-11-08T08:02:03.103Z,83.83
2022-11-08T08:05:05.609Z,83.47
2022-11-08T08:08:07.811Z,83.75
2022-11-08T08:11:10.036Z,83.87
2022-11-08T08:14:12.091Z,84.47
2022-11-08T08:17:14.250Z,83.88
2022-11-08T08:20:16.316Z,83.74
2022-11-08T08:23:18.700Z,84.83
2022-11-08T08:26:21.041Z,85.17
2022-11-08T08:29:23.107Z,86.55
2022-11-08T08:32:28.239Z,86.69
2022-11-08T08:35:37.245Z,87.57
2022-11-08T08:38:44.347Z,86.53
2022-11-08T08:41:46.830Z,86.78
2022-11-08T08:44:48.917Z,86.87
2022-11-08T08:47:55.171Z,86.34
2022-11-08T08:50:57.471Z,86.71
2022-11-08T08:53:59.540Z,87.38
2022-11-08T08:57:01.615Z,86.43
2022-11-08T09:03:26.599Z,84.19
2022-11-08T09:06:28.673Z,83.02
2022-11-08T09:09:30.757Z,82.86
2022-11-08T09:12:33.207Z,83.44
2022-11-08T09:15:35.270Z,84.14
2022-11-08T09:18:37.350Z,84.24
2022-11-08T09:21:39.445Z,84.62
2022-11-08T09:24:41.503Z,84.24
2022-11-08T09:27:43.524Z,85.67
2022-11-08T09:30:45.549Z,85.04
2022-11-08T09:33:49.709Z,85.12
2022-11-08T09:36:51.801Z,85.50
2022-11-08T09:39:54.058Z,85.69
2022-11-08T09:43:26.074Z,86.08
2022-11-08T09:46:57.537Z,85.46
2022-11-08T09:50:20.124Z,83.30
2022-11-08T09:53:34.804Z,82.16
2022-11-08T09:56:37.994Z,83.32
2022-11-08T09:59:52.831Z,81.62
2022-11-08T10:02:54.976Z,81.14
2022-11-08T10:06:11.648Z,82.01
2022-11-08T10:09:19.661Z,81.57
2022-11-08T10:12:32.792Z,80.13
2022-11-08T10:15:41.702Z,81.75
2022-11-08T10:19:34.962Z,78.82
2022-11-08T10:23:15.544Z,79.09
2022-11-08T10:26:26.898Z,78.94
2022-11-08T10:29:37.706Z,78.48
2022-11-08T10:32:39.745Z,78.43
2022-11-08T10:35:51.061Z,78.14
2022-11-08T10:39:08.989Z,78.13
2022-11-08T10:42:50.401Z,78.48
2022-11-08T10:45:52.549Z,77.41
2022-11-08T10:48:56.845Z,75.88
2022-11-08T10:52:01.576Z,75.95
2022-11-08T10:55:06.637Z,74.46
2022-11-08T10:58:31.921Z,74.91
2022-11-08T11:01:34.025Z,76.02
2022-11-08T11:04:36.125Z,76.34
2022-11-08T11:07:39.230Z,75.91
2022-11-08T11:10:48.241Z,73.76
2022-11-08T11:14:18.130Z,74.84
2022-11-08T11:17:32.928Z,74.88
2022-11-08T11:20:37.736Z,72.94
2022-11-08T11:23:54.246Z,73.67
2022-11-08T11:27:19.481Z,72.67
2022-11-08T11:30:33.890Z,73.59
2022-11-08T11:33:43.005Z,73.85
2022-11-08T11:37:07.248Z,75.53
2022-11-08T11:40:27.487Z,72.74
2022-11-08T11:44:28.490Z,70.16
2022-11-08T11:47:41.195Z,66.92
2022-11-08T11:50:48.233Z,66.83
2022-11-08T11:53:50.385Z,73.11
2022-11-08T11:57:08.515Z,75.68
2022-11-08T12:00:14.986Z,77.72
2022-11-08T12:03:51.314Z,79.02
2022-11-08T12:07:33.171Z,80.94
2022-11-08T12:10:45.878Z,82.54
2022-11-08T12:14:10.874Z,81.52
2022-11-08T12:17:28.270Z,81.91
2022-11-08T12:20:55.023Z,80.64
2022-11-08T12:24:30.628Z,80.59
2022-11-08T12:28:04.979Z,81.43
2022-11-08T12:31:35.486Z,80.72
2022-11-08T12:34:52.746Z,79.70
2022-11-08T12:38:12.029Z,79.52
2022-11-08T12:41:42.371Z,78.80
2022-11-08T12:45:12.093Z,78.67
2022-11-08T12:48:23.039Z,76.52
2022-11-08T12:52:09.147Z,72.12
2022-11-08T12:55:30.257Z,66.99
2022-11-08T12:59:01.741Z,65.71
2022-11-08T13:02:04.062Z,67.64
2022-11-08T13:05:13.422Z,68.33
2022-11-08T13:08:22.136Z,69.27
2022-11-08T13:11:50.248Z,72.38
2022-11-08T13:14:52.339Z,67.58
2022-11-08T13:18:06.450Z,67.51
2022-11-08T13:21:34.326Z,60.37
2022-11-08T13:24:45.333Z,56.32
2022-11-08T13:27:48.494Z,59.39
2022-11-08T13:31:00.001Z,58.52
2022-11-08T13:34:20.572Z,62.29
2022-11-08T13:37:42.001Z,57.49
2022-11-08T13:41:24.439Z,51.87
2022-11-08T13:45:00.121Z,50.95
2022-11-08T13:48:26.099Z,57.65
2022-11-08T13:51:33.489Z,65.59
2022-11-08T13:54:48.886Z,68.49
2022-11-08T13:58:00.113Z,71.32
2022-11-08T14:01:04.841Z,70.10
2022-11-08T14:04:40.311Z,69.35
2022-11-08T14:07:48.257Z,68.70
2022-11-08T14:11:19.155Z,68.52
2022-11-08T14:14:39.189Z,68.17
2022-11-08T14:18:01.798Z,67.33
2022-11-08T14:21:04.328Z,69.04
2022-11-08T14:24:12.166Z,72.89
2022-11-08T14:27:14.869Z,75.59
2022-11-08T14:30:21.691Z,75.63
2022-11-08T14:33:26.245Z,76.14
2022-11-08T14:36:30.223Z,75.80
2022-11-08T14:39:34.780Z,74.55
2022-11-08T14:42:36.853Z,73.70
2022-11-08T14:45:39.291Z,60.43
2022-11-08T14:49:28.081Z,57.18
2022-11-08T14:52:31.737Z,54.25
2022-11-08T14:55:33.871Z,52.28
2022-11-08T14:58:35.935Z,59.98
2022-11-08T15:01:38.094Z,67.46
2022-11-08T15:04:40.597Z,72.08
2022-11-08T15:07:42.654Z,72.29
2022-11-08T15:10:57.170Z,73.39
2022-11-08T15:14:07.056Z,72.78
2022-11-08T15:17:38.608Z,73.52
2022-11-08T15:20:53.106Z,74.28
2022-11-08T15:24:14.836Z,73.29
2022-11-08T15:27:17.058Z,73.69
2022-11-08T15:30:26.988Z,74.07
2022-11-08T15:33:40.850Z,74.04
2022-11-08T15:36:42.945Z,72.93
2022-11-08T15:39:46.080Z,72.78
2022-11-08T15:42:50.699Z,73.00
2022-11-08T15:45:53.583Z,73.83
2022-11-08T15:48:57.919Z,73.72
2022-11-08T15:51:59.969Z,73.15
2022-11-08T15:55:02.002Z,72.02
2022-11-08T15:58:04.740Z,72.55
2022-11-08T16:01:07.023Z,72.77
2022-11-08T16:04:14.946Z,72.55
2022-11-08T16:07:17.099Z,72.19
2022-11-08T16:10:36.894Z,72.53
2022-11-08T16:13:39.083Z,71.90
2022-11-08T16:16:41.170Z,72.13
2022-11-08T16:19:43.201Z,72.67
2022-11-08T16:22:45.668Z,73.56
2022-11-08T16:25:55.292Z,75.57
2022-11-08T16:28:57.487Z,77.22
2022-11-08T16:31:59.560Z,77.63
2022-11-08T16:35:01.610Z,78.14
2022-11-08T16:38:03.634Z,77.69
2022-11-08T16:41:06.078Z,78.31
2022-11-08T16:44:08.527Z,78.36
2022-11-08T16:47:12.774Z,79.95
2022-11-08T16:50:18.852Z,79.97
2022-11-08T16:53:21.529Z,79.89
2022-11-08T16:56:23.730Z,80.20
2022-11-08T16:59:25.778Z,79.32
2022-11-08T17:02:31.651Z,79.50
2022-11-08T17:05:34.536Z,79.13
2022-11-08T17:08:37.921Z,78.94
2022-11-08T17:11:45.682Z,79.00
2022-11-08T17:14:48.593Z,78.75
2022-11-08T17:17:53.203Z,78.59
2022-11-08T17:21:11.374Z,79.00
2022-11-08T17:24:24.818Z,79.64
2022-11-08T17:27:27.439Z,79.56
2022-11-08T17:30:34.318Z,79.03
2022-11-08T17:33:38.632Z,78.81
2022-11-08T17:36:41.062Z,79.74
2022-11-08T17:39:43.591Z,80.15
2022-11-08T17:42:46.579Z,80.42
2022-11-08T17:45:50.443Z,79.92
2022-11-08T17:48:52.519Z,78.85
2022-11-08T17:51:54.634Z,79.26
2022-11-08T17:54:56.842Z,77.89
2022-11-08T17:57:58.947Z,76.89
2022-11-08T18:01:02.941Z,77.12
2022-11-08T18:04:05.220Z,77.21
2022-11-08T18:07:07.547Z,76.32
2022-11-08T18:10:10.012Z,76.55
2022-11-08T18:13:12.253Z,76.83
2022-11-08T18:16:19.645Z,77.49
2022-11-08T18:19:21.830Z,77.44
2022-11-08T18:22:23.975Z,77.70
2022-11-08T18:25:26.053Z,78.38
2022-11-08T18:28:28.217Z,78.39
2022-11-08T18:31:30.715Z,79.10
2022-11-08T18:34:32.773Z,78.08
2022-11-08T18:37:34.833Z,78.03
2022-11-08T18:40:36.883Z,77.11
2022-11-08T18:43:38.966Z,77.16
2022-11-08T18:46:43.403Z,76.59
2022-11-08T18:49:45.839Z,76.33
2022-11-08T18:52:48.338Z,75.35
2022-11-08T18:55:50.610Z,74.59
2022-11-08T18:58:54.434Z,72.63
2022-11-08T19:01:56.548Z,72.68
2022-11-08T19:04:59.210Z,72.43
2022-11-08T19:08:01.303Z,71.57
2022-11-08T19:11:08.019Z,71.13
2022-11-08T19:14:10.189Z,70.58
2022-11-08T19:17:14.644Z,71.03
2022-11-08T19:20:16.887Z,70.96
2022-11-08T19:23:21.450Z,72.51
2022-11-08T19:26:25.562Z,73.67
2022-11-08T19:29:27.700Z,74.21
2022-11-08T19:32:29.742Z,75.10
2022-11-08T19:35:31.807Z,74.78
2022-11-08T19:38:35.314Z,75.20
2022-11-08T19:41:38.049Z,75.29
2022-11-08T19:44:40.301Z,75.67
2022-11-08T19:47:43.691Z,76.52
2022-11-08T19:50:45.794Z,75.61
2022-11-08T19:53:48.309Z,75.92
2022-11-08T19:57:04.783Z,76.67
2022-11-08T20:00:10.313Z,75.90
2022-11-08T20:03:14.332Z,76.10
2022-11-08T20:06:18.837Z,76.64
2022-11-08T20:09:22.694Z,76.43
2022-11-08T20:12:31.454Z,77.51
2022-11-08T20:15:33.515Z,78.04
2022-11-08T20:18:35.554Z,78.93
2022-11-08T20:21:42.290Z,79.78
2022-11-08T20:24:44.401Z,78.92
2022-11-08T20:27:46.457Z,78.68
2022-11-08T20:30:48.487Z,78.19
2022-11-08T20:33:53.143Z,77.82
2022-11-08T20:36:55.382Z,77.42
2022-11-08T20:39:57.433Z,77.51
2022-11-08T20:42:59.476Z,78.23
2022-11-08T20:46:05.964Z,77.73
2022-11-08T20:49:08.117Z,77.73
2022-11-08T20:52:10.213Z,78.63
2022-11-08T20:55:12.418Z,78.87
2022-11-08T20:58:14.444Z,79.35
2022-11-08T21:01:19.290Z,79.22
2022-11-08T21:04:21.441Z,79.28
2022-11-08T21:10:47.808Z,78.75
2022-11-08T21:13:52.538Z,77.76
2022-11-08T21:20:16.889Z,76.57
2022-11-08T21:23:19.387Z,77.75
2022-11-08T21:26:21.634Z,77.47
2022-11-08T21:29:23.685Z,77.25
2022-11-08T21:32:25.729Z,78.24
2022-11-08T21:35:27.850Z,77.04
2022-11-08T21:38:29.961Z,75.75
2022-11-08T21:41:32.021Z,76.15
2022-11-08T21:44:34.069Z,76.16
2022-11-08T21:47:36.225Z,76.83
2022-11-08T21:50:38.572Z,77.03
2022-11-08T21:53:49.396Z,76.54
2022-11-08T21:56:54.836Z,77.64
2022-11-08T21:59:56.985Z,77.34
2022-11-08T22:02:59.490Z,78.10
2022-11-08T22:06:01.637Z,78.32
2022-11-08T22:09:03.934Z,78.32
2022-11-08T22:12:06.301Z,78.29
2022-11-08T22:15:09.417Z,77.44
2022-11-08T22:18:16.286Z,77.90
2022-11-08T22:21:41.053Z,78.54
2022-11-08T22:24:44.608Z,78.58
2022-11-08T22:27:46.831Z,78.84
2022-11-08T22:30:52.441Z,78.45
2022-11-08T22:33:54.564Z,78.19
2022-11-08T22:36:56.795Z,78.65
2022-11-08T22:39:59.058Z,77.70
2022-11-08T22:43:01.258Z,78.28
2022-11-08T22:46:03.460Z,78.82
2022-11-08T22:49:05.699Z,80.31
2022-11-08T22:52:07.805Z,80.43
2022-11-08T22:55:10.123Z,80.51
2022-11-08T22:58:12.796Z,81.19
2022-11-08T23:01:15.343Z,81.49
2022-11-08T23:04:17.637Z,80.60
2022-11-08T23:07:19.820Z,81.26
2022-11-08T23:10:22.420Z,82.44
2022-11-08T23:13:43.387Z,82.84
2022-11-08T23:16:45.854Z,82.60
2022-11-08T23:20:06.773Z,82.26
2022-11-08T23:23:28.490Z,82.10
2022-11-08T23:26:49.217Z,82.38
2022-11-08T23:30:10.025Z,82.94
2022-11-08T23:33:12.240Z,82.89
2022-11-08T23:36:15.859Z,82.82
2022-11-08T23:39:18.220Z,83.53
2022-11-08T23:42:38.923Z,83.16
2022-11-08T23:45:41.024Z,82.08
2022-11-08T23:48:43.110Z,80.36
2022-11-08T23:51:45.267Z,80.41
2022-11-08T23:54:47.311Z,80.15
2022-11-08T23:57:49.421Z,79.73
